createdAt,value
2017-12-30T00:07:53.525Z,0
2017-12-30T00:17:53.554Z,0
2017-12-30T00:27:53.441Z,0
2017-12-30T00:37:53.432Z,0
2017-12-30T00:48:02.689Z,0
2017-12-30T00:57:53.455Z,0
2017-12-30T01:07:53.509Z,0
2017-12-30T01:17:53.516Z,0
2017-12-30T01:27:53.545Z,0
2017-12-30T01:37:53.464Z,0
2017-12-30T01:47:53.548Z,0
2017-12-30T01:57:53.527Z,0
2017-12-30T02:07:53.488Z,0
2017-12-30T02:17:53.570Z,0
2017-12-30T02:27:53.500Z,0
2017-12-30T02:37:53.570Z,0
2017-12-30T02:47:53.518Z,0
2017-12-30T02:57:53.599Z,0
2017-12-30T03:07:53.841Z,0
2017-12-30T03:17:53.596Z,0
2017-12-30T03:27:53.575Z,0
2017-12-30T03:37:53.635Z,0
2017-12-30T03:47:53.551Z,0
2017-12-30T03:57:53.637Z,0
2017-12-30T04:07:53.645Z,0
2017-12-30T04:17:53.611Z,0
2017-12-30T04:27:53.644Z,0
2017-12-30T04:37:53.620Z,0
2017-12-30T04:47:53.680Z,0
2017-12-30T04:57:53.624Z,0
2017-12-30T05:07:53.739Z,0
2017-12-30T05:17:53.667Z,0
2017-12-30T05:27:53.741Z,0
2017-12-30T05:37:53.640Z,0
2017-12-30T05:47:53.776Z,0
2017-12-30T05:57:53.693Z,0
2017-12-30T06:07:53.808Z,0
2017-12-30T06:17:53.728Z,0
2017-12-30T06:27:53.661Z,0
2017-12-30T06:37:53.754Z,0
2017-12-30T06:47:53.705Z,0
2017-12-30T06:57:53.751Z,0
2017-12-30T07:07:53.758Z,0
2017-12-30T07:17:53.786Z,0
2017-12-30T07:27:53.785Z,0
2017-12-30T07:37:53.794Z,0
2017-12-30T07:47:53.774Z,0
2017-12-30T07:57:53.809Z,0
2017-12-30T08:07:53.806Z,5
2017-12-30T08:17:53.848Z,5
2017-12-30T08:27:53.852Z,10
2017-12-30T08:37:53.884Z,10
2017-12-30T08:47:53.869Z,20
2017-12-30T08:57:53.831Z,25
2017-12-30T09:07:53.869Z,35
2017-12-30T09:17:53.838Z,45
2017-12-30T09:27:53.898Z,40
2017-12-30T09:37:53.866Z,35
2017-12-30T09:47:53.964Z,30
2017-12-30T09:57:53.900Z,40
2017-12-30T10:07:54.038Z,40
2017-12-30T10:17:53.871Z,35
2017-12-30T10:27:53.990Z,45
2017-12-30T10:37:54.162Z,50
2017-12-30T10:47:53.948Z,45
2017-12-30T10:57:53.959Z,30
2017-12-30T11:07:54.017Z,30
2017-12-30T11:17:54.003Z,45
2017-12-30T11:27:53.959Z,20
2017-12-30T11:37:54.045Z,20
2017-12-30T11:47:54.085Z,20
2017-12-30T11:57:54.136Z,40
2017-12-30T12:07:54.090Z,40
2017-12-30T12:17:54.023Z,65
2017-12-30T12:27:54.096Z,25
2017-12-30T12:37:53.990Z,30
2017-12-30T12:47:54.491Z,20
2017-12-30T12:57:54.067Z,35
2017-12-30T13:07:54.014Z,55
2017-12-30T13:17:54.041Z,35
2017-12-30T13:27:54.079Z,45
2017-12-30T13:37:54.045Z,35
2017-12-30T13:47:54.102Z,45
2017-12-30T13:57:54.100Z,40
2017-12-30T14:07:54.082Z,35
2017-12-30T14:17:54.097Z,35
2017-12-30T14:27:54.117Z,20
2017-12-30T14:37:54.109Z,20
2017-12-30T14:47:54.130Z,20
2017-12-30T14:57:54.157Z,15
2017-12-30T15:07:54.140Z,10
2017-12-30T15:17:54.114Z,5
2017-12-30T15:27:54.258Z,0
2017-12-30T15:37:54.116Z,0
2017-12-30T15:47:54.154Z,0
2017-12-30T15:57:54.193Z,0
2017-12-30T16:07:54.226Z,0
2017-12-30T16:17:54.240Z,0
2017-12-30T16:27:54.301Z,0
2017-12-30T16:37:54.172Z,0
2017-12-30T16:47:54.170Z,0
2017-12-30T16:57:54.165Z,0
2017-12-30T17:07:54.319Z,0
2017-12-30T17:17:54.250Z,0
2017-12-30T17:27:54.248Z,0
2017-12-30T17:37:54.288Z,0
2017-12-30T17:47:54.393Z,0
2017-12-30T17:57:54.881Z,0
2017-12-30T18:07:54.287Z,0
2017-12-30T18:17:54.361Z,0
2017-12-30T18:27:54.320Z,0
2017-12-30T18:37:54.319Z,0
2017-12-30T18:47:54.335Z,0
2017-12-30T18:57:54.365Z,0
2017-12-30T19:07:54.324Z,0
2017-12-30T19:17:54.394Z,0
2017-12-30T19:27:54.489Z,0
2017-12-30T19:38:05.386Z,0
2017-12-30T19:47:54.523Z,0
2017-12-30T19:57:56.447Z,0
2017-12-30T20:07:54.776Z,0
2017-12-30T20:17:54.996Z,0
2017-12-30T20:27:55.078Z,0
2017-12-30T20:37:55.434Z,0
2017-12-30T20:47:54.432Z,0
2017-12-30T20:57:54.932Z,0
2017-12-30T21:07:54.773Z,0
2017-12-30T21:17:55.033Z,0
2017-12-30T21:27:55.238Z,0
2017-12-30T21:37:55.057Z,0
2017-12-30T21:47:54.972Z,0
2017-12-30T21:57:54.528Z,0
2017-12-30T22:07:54.502Z,0
2017-12-30T22:17:54.534Z,0
2017-12-30T22:27:54.626Z,0
2017-12-30T22:37:54.470Z,0
2017-12-30T22:47:54.489Z,0
2017-12-30T22:57:54.525Z,0
2017-12-30T23:07:54.573Z,0
2017-12-30T23:17:54.628Z,0
2017-12-30T23:27:54.568Z,0
2017-12-30T23:37:54.536Z,0
2017-12-30T23:47:54.687Z,0
2017-12-30T23:57:54.606Z,0
